createdAt,value
2019-05-04T00:00:38.479Z,15.93
2019-05-04T00:01:31.688Z,14.50
2019-05-04T00:02:25.883Z,17.60
2019-05-04T00:03:01.788Z,15.93
2019-05-04T00:03:37.692Z,17.87
2019-05-04T00:04:14.706Z,10.77
2019-05-04T00:04:58.464Z,13.53
2019-05-04T00:05:36.761Z,13.50
2019-05-04T00:06:14.478Z,14.97
2019-05-04T00:06:50.944Z,12.10
2019-05-04T00:07:26.956Z,17.17
2019-05-04T00:08:02.909Z,12.80
2019-05-04T00:08:38.746Z,15.97
2019-05-04T00:09:14.871Z,13.17
2019-05-04T00:09:50.908Z,13.30
2019-05-04T00:10:26.777Z,12.90
2019-05-04T00:11:04.412Z,17.90
2019-05-04T00:11:40.462Z,10.00
2019-05-04T00:12:16.357Z,16.03
2019-05-04T00:12:54.203Z,12.40
2019-05-04T00:13:30.035Z,12.03
2019-05-04T00:14:06.032Z,9.47
2019-05-04T00:14:41.956Z,12.37
2019-05-04T00:15:17.912Z,12.53
2019-05-04T00:15:54.781Z,14.63
2019-05-04T00:16:30.816Z,14.07
2019-05-04T00:17:06.869Z,11.10
2019-05-04T00:17:42.816Z,12.73
2019-05-04T00:18:18.809Z,11.30
2019-05-04T00:18:55.130Z,20.20
2019-05-04T00:19:31.109Z,14.00
2019-05-04T00:20:07.301Z,16.63
2019-05-04T00:20:51.311Z,10.07
2019-05-04T00:21:20.908Z,14.00
2019-05-04T00:21:56.794Z,22.40
2019-05-04T00:22:34.804Z,11.23
2019-05-04T00:23:10.576Z,11.37
2019-05-04T00:23:46.606Z,10.00
2019-05-04T00:24:24.638Z,10.67
2019-05-04T00:25:00.226Z,18.67
2019-05-04T00:25:36.086Z,13.23
2019-05-04T00:26:12.142Z,11.53
2019-05-04T00:26:48.093Z,11.83
2019-05-04T00:27:24.945Z,20.27
2019-05-04T00:28:00.903Z,17.47
2019-05-04T00:28:36.729Z,13.40
2019-05-04T00:29:14.566Z,14.77
2019-05-04T00:29:50.292Z,8.50
2019-05-04T00:30:26.276Z,15.20
2019-05-04T00:31:02.337Z,10.07
2019-05-04T00:31:38.275Z,12.03
2019-05-04T00:32:17.783Z,10.73
2019-05-04T00:33:15.474Z,13.70
2019-05-04T00:34:00.291Z,14.30
2019-05-04T00:34:49.832Z,7.40
2019-05-04T00:35:47.731Z,10.23
2019-05-04T00:36:41.786Z,14.17
2019-05-04T00:37:18.058Z,9.73
2019-05-04T00:37:54.865Z,12.33
2019-05-04T00:38:30.860Z,20.63
2019-05-04T00:39:31.439Z,8.30
2019-05-04T00:40:07.900Z,9.93
2019-05-04T00:40:44.380Z,10.00
2019-05-04T00:41:20.329Z,12.37
2019-05-04T00:41:56.162Z,19.50
2019-05-04T00:42:32.008Z,11.60
2019-05-04T00:43:07.918Z,16.03
2019-05-04T00:43:44.817Z,13.23
2019-05-04T00:44:20.755Z,8.63
2019-05-04T00:44:56.647Z,10.03
2019-05-04T00:45:32.500Z,15.53
2019-05-04T00:46:08.570Z,11.63
2019-05-04T00:46:45.153Z,11.87
2019-05-04T00:47:21.100Z,13.07
2019-05-04T00:47:57.069Z,16.97
2019-05-04T00:48:34.549Z,10.03
2019-05-04T00:49:10.706Z,13.77
2019-05-04T00:49:46.585Z,5.90
2019-05-04T00:50:22.454Z,11.27
2019-05-04T00:50:58.375Z,11.00
2019-05-04T00:51:35.137Z,6.47
2019-05-04T00:52:15.509Z,7.80
2019-05-04T00:52:51.722Z,11.10
2019-05-04T00:53:27.647Z,8.40
2019-05-04T00:54:05.272Z,12.23
2019-05-04T00:54:41.498Z,9.73
2019-05-04T00:55:17.639Z,8.27
2019-05-04T00:56:05.186Z,10.80
2019-05-04T00:56:47.081Z,9.90
2019-05-04T00:57:24.462Z,10.67
2019-05-04T00:58:00.445Z,8.00
2019-05-04T00:58:36.486Z,8.63
2019-05-04T00:59:15.055Z,10.13
2019-05-04T00:59:51.025Z,8.30
2019-05-04T01:00:34.761Z,9.70
2019-05-04T01:01:25.097Z,8.37
2019-05-04T01:02:18.296Z,10.33
2019-05-04T01:02:55.126Z,8.50
2019-05-04T01:03:31.104Z,9.73
2019-05-04T01:04:07.169Z,7.20
2019-05-04T01:04:43.054Z,7.73
2019-05-04T01:05:19.055Z,9.90
2019-05-04T01:05:55.156Z,6.80
2019-05-04T01:06:31.086Z,13.00
2019-05-04T01:07:17.660Z,12.17
2019-05-04T01:07:44.849Z,6.23
2019-05-04T01:08:20.889Z,6.27
2019-05-04T01:08:57.054Z,8.10
2019-05-04T01:09:32.968Z,10.90
2019-05-04T01:10:09.387Z,8.43
2019-05-04T01:10:45.275Z,8.37
2019-05-04T01:11:21.131Z,7.10
2019-05-04T01:11:56.971Z,5.00
2019-05-04T01:12:32.847Z,13.87
2019-05-04T01:13:08.802Z,7.27
2019-05-04T01:13:44.991Z,6.17
2019-05-04T01:14:21.507Z,10.93
2019-05-04T01:14:57.374Z,6.50
2019-05-04T01:15:35.071Z,4.80
2019-05-04T01:16:11.049Z,4.23
2019-05-04T01:16:46.901Z,6.40
2019-05-04T01:17:24.872Z,3.90
2019-05-04T01:18:00.674Z,5.83
2019-05-04T01:18:37.261Z,4.30
2019-05-04T01:19:14.677Z,7.33
2019-05-04T01:19:50.779Z,4.87
2019-05-04T01:20:26.716Z,7.13
2019-05-04T01:21:04.429Z,5.10
2019-05-04T01:21:40.258Z,3.80
2019-05-04T01:22:16.107Z,6.30
2019-05-04T01:22:51.983Z,8.10
2019-05-04T01:23:27.823Z,4.70
2019-05-04T01:24:04.470Z,4.10
2019-05-04T01:24:40.505Z,12.07
2019-05-04T01:25:16.384Z,4.77
2019-05-04T01:25:52.255Z,3.90
2019-05-04T01:26:28.215Z,4.83
2019-05-04T01:27:05.729Z,4.70
2019-05-04T01:27:41.743Z,7.80
2019-05-04T01:28:17.681Z,4.33
2019-05-04T01:28:55.467Z,4.20
2019-05-04T01:29:31.272Z,4.50
2019-05-04T01:30:07.367Z,9.83
2019-05-04T01:30:45.093Z,11.67
2019-05-04T01:31:20.925Z,4.30
2019-05-04T01:31:57.258Z,7.70
2019-05-04T01:32:34.793Z,4.67
2019-05-04T01:33:10.776Z,9.50
2019-05-04T01:34:05.217Z,4.73
2019-05-04T01:34:49.055Z,8.00
2019-05-04T01:35:24.917Z,4.80
2019-05-04T01:36:05.374Z,4.67
2019-05-04T01:36:46.522Z,3.47
2019-05-04T01:37:36.603Z,4.30
2019-05-04T01:38:25.820Z,3.63
2019-05-04T01:39:26.325Z,3.80
2019-05-04T01:40:08.154Z,4.30
2019-05-04T01:40:58.647Z,8.20
2019-05-04T01:41:39.244Z,4.93
2019-05-04T01:42:15.481Z,15.13
2019-05-04T01:42:51.432Z,5.10
2019-05-04T01:43:27.288Z,8.67
2019-05-04T01:44:04.887Z,8.20
2019-05-04T01:44:41.481Z,5.13
2019-05-04T01:45:17.425Z,7.37
2019-05-04T01:45:55.230Z,4.27
2019-05-04T01:46:30.917Z,10.17
2019-05-04T01:47:06.884Z,4.27
2019-05-04T01:47:44.974Z,5.87
2019-05-04T01:48:20.581Z,3.27
2019-05-04T01:48:56.583Z,5.23
2019-05-04T01:49:34.341Z,11.00
2019-05-04T01:50:10.479Z,6.07
2019-05-04T01:50:46.311Z,7.50
2019-05-04T01:51:22.200Z,4.80
2019-05-04T01:51:58.160Z,4.93
2019-05-04T01:52:35.260Z,9.83
2019-05-04T01:53:32.654Z,2.80
2019-05-04T01:54:08.599Z,3.33
2019-05-04T01:54:45.583Z,4.00
2019-05-04T01:55:21.794Z,3.60
2019-05-04T01:56:11.235Z,5.60
2019-05-04T01:56:49.943Z,2.70
2019-05-04T01:57:31.500Z,3.60
2019-05-04T01:58:11.595Z,11.93
2019-05-04T01:58:54.757Z,5.63
2019-05-04T01:59:42.047Z,8.23
2019-05-04T02:00:25.811Z,4.33
2019-05-04T02:01:01.650Z,3.20
2019-05-04T02:01:37.641Z,3.60
2019-05-04T02:02:15.502Z,3.03
2019-05-04T02:02:51.142Z,9.60
2019-05-04T02:03:27.007Z,3.33
2019-05-04T02:04:05.239Z,11.50
2019-05-04T02:04:40.650Z,4.53
2019-05-04T02:05:16.759Z,6.23
2019-05-04T02:05:54.916Z,5.17
2019-05-04T02:06:30.473Z,3.37
2019-05-04T02:07:06.346Z,3.60
2019-05-04T02:07:45.959Z,5.23
2019-05-04T02:08:20.176Z,4.70
2019-05-04T02:09:00.712Z,3.73
2019-05-04T02:09:38.193Z,4.17
2019-05-04T02:10:15.633Z,5.67
2019-05-04T02:10:51.597Z,4.77
2019-05-04T02:11:27.657Z,2.60
2019-05-04T02:12:05.188Z,7.53
2019-05-04T02:12:41.367Z,4.27
2019-05-04T02:13:17.308Z,3.77
2019-05-04T02:13:55.608Z,3.20
2019-05-04T02:14:30.956Z,3.70
2019-05-04T02:15:07.001Z,3.23
2019-05-04T02:15:44.859Z,2.80
2019-05-04T02:16:20.616Z,3.13
2019-05-04T02:16:56.602Z,2.77
2019-05-04T02:17:34.708Z,3.97
2019-05-04T02:18:10.544Z,3.93
2019-05-04T02:18:46.508Z,4.40
2019-05-04T02:19:24.452Z,3.20
2019-05-04T02:20:00.174Z,3.30
2019-05-04T02:20:36.177Z,5.83
2019-05-04T02:21:12.015Z,3.53
2019-05-04T02:21:56.597Z,6.60
2019-05-04T02:22:36.641Z,2.90
2019-05-04T02:23:14.518Z,4.67
2019-05-04T02:23:50.228Z,2.97
2019-05-04T02:24:27.996Z,8.03
2019-05-04T02:25:21.301Z,8.20
2019-05-04T02:26:15.674Z,3.70
2019-05-04T02:27:10.440Z,4.97
2019-05-04T02:27:55.561Z,3.30
2019-05-04T02:28:50.544Z,3.07
2019-05-04T02:29:46.110Z,2.53
2019-05-04T02:30:32.319Z,2.37
2019-05-04T02:31:08.141Z,5.57
2019-05-04T02:31:45.872Z,5.27
2019-05-04T02:32:22.033Z,2.60
2019-05-04T02:32:57.982Z,2.87
2019-05-04T02:33:35.726Z,2.87
2019-05-04T02:34:11.601Z,2.17
2019-05-04T02:34:47.517Z,4.53
2019-05-04T02:35:26.292Z,2.10
2019-05-04T02:36:01.822Z,2.40
2019-05-04T02:36:37.727Z,2.20
2019-05-04T02:37:16.394Z,5.63
2019-05-04T02:38:05.605Z,3.23
2019-05-04T02:38:31.124Z,3.63
2019-05-04T02:39:11.411Z,1.80
2019-05-04T02:39:47.503Z,2.00
2019-05-04T02:40:37.602Z,4.47
2019-05-04T02:41:41.303Z,2.20
2019-05-04T02:42:17.239Z,1.87
2019-05-04T02:42:56.338Z,2.07
2019-05-04T02:43:31.244Z,2.13
2019-05-04T02:44:07.670Z,1.70
2019-05-04T02:44:46.146Z,2.03
2019-05-04T02:45:21.498Z,2.20
2019-05-04T02:45:57.450Z,3.00
2019-05-04T02:46:36.052Z,1.60
2019-05-04T02:47:28.431Z,1.93
2019-05-04T02:48:12.631Z,1.80
2019-05-04T02:48:49.396Z,2.20
2019-05-04T02:49:45.415Z,2.33
2019-05-04T02:50:41.681Z,2.37
2019-05-04T02:51:17.945Z,2.10
2019-05-04T02:51:56.406Z,2.40
2019-05-04T02:52:32.496Z,2.63
2019-05-04T02:53:09.086Z,2.30
2019-05-04T02:53:46.280Z,2.37
2019-05-04T02:54:25.254Z,1.87
2019-05-04T02:55:00.683Z,3.53
2019-05-04T02:55:36.647Z,1.63
2019-05-04T02:56:12.500Z,1.77
2019-05-04T02:56:48.414Z,3.53
2019-05-04T02:57:25.951Z,2.43
2019-05-04T02:58:02.021Z,6.33
2019-05-04T02:58:38.497Z,2.30
2019-05-04T02:59:15.342Z,1.70
2019-05-04T02:59:51.421Z,2.00
2019-05-04T03:00:27.531Z,2.73
2019-05-04T03:01:04.943Z,4.97
2019-05-04T03:01:41.181Z,3.00
2019-05-04T03:02:17.969Z,2.97
2019-05-04T03:02:55.895Z,5.43
2019-05-04T03:03:31.667Z,10.43
2019-05-04T03:04:07.569Z,4.00
2019-05-04T03:04:45.535Z,3.67
2019-05-04T03:05:21.308Z,9.40
2019-05-04T03:05:57.490Z,6.57
2019-05-04T03:06:35.845Z,3.70
2019-05-04T03:07:11.161Z,5.60
2019-05-04T03:07:47.070Z,4.63
2019-05-04T03:08:30.000Z,13.03
2019-05-04T03:09:00.605Z,4.03
2019-05-04T03:09:36.464Z,4.80
2019-05-04T03:10:15.195Z,7.43
2019-05-04T03:10:50.787Z,4.90
2019-05-04T03:11:27.363Z,6.60
2019-05-04T03:12:06.111Z,8.50
2019-05-04T03:12:41.079Z,5.80
2019-05-04T03:13:17.010Z,3.80
2019-05-04T03:13:52.874Z,6.53
2019-05-04T03:14:32.405Z,3.77
2019-05-04T03:15:06.593Z,4.07
2019-05-04T03:15:42.476Z,4.63
2019-05-04T03:16:18.330Z,3.17
2019-05-04T03:16:56.086Z,3.40
2019-05-04T03:17:38.780Z,3.40
2019-05-04T03:18:26.031Z,3.13
2019-05-04T03:19:07.303Z,9.60
2019-05-04T03:20:06.090Z,6.00
2019-05-04T03:21:06.023Z,3.30
2019-05-04T03:21:52.433Z,3.50
2019-05-04T03:22:40.977Z,4.80
2019-05-04T03:23:17.600Z,5.70
2019-05-04T03:23:56.310Z,2.50
2019-05-04T03:24:35.419Z,10.23
2019-05-04T03:25:10.468Z,3.77
2019-05-04T03:25:47.925Z,3.03
2019-05-04T03:26:26.197Z,2.83
2019-05-04T03:27:01.515Z,2.10
2019-05-04T03:27:37.480Z,4.33
2019-05-04T03:28:16.265Z,2.77
2019-05-04T03:28:51.124Z,3.03
2019-05-04T03:29:27.095Z,3.50
2019-05-04T03:30:06.949Z,4.07
2019-05-04T03:30:47.636Z,2.83
2019-05-04T03:31:21.058Z,3.30
2019-05-04T03:31:58.568Z,3.67
2019-05-04T03:32:37.906Z,5.53
2019-05-04T03:33:12.274Z,3.30
2019-05-04T03:33:49.135Z,4.93
2019-05-04T03:34:50.467Z,5.67
2019-05-04T03:35:23.123Z,3.70
2019-05-04T03:35:51.840Z,4.97
2019-05-04T03:36:23.996Z,6.07
2019-05-04T03:36:59.204Z,7.70
2019-05-04T03:37:35.713Z,4.20
2019-05-04T03:38:11.658Z,4.30
2019-05-04T03:38:53.796Z,9.83
2019-05-04T03:39:26.170Z,4.03
2019-05-04T03:40:05.434Z,5.67
2019-05-04T03:40:40.078Z,8.73
2019-05-04T03:41:16.584Z,6.57
2019-05-04T03:41:55.261Z,6.93
2019-05-04T03:42:30.283Z,6.80
2019-05-04T03:43:09.724Z,5.90
2019-05-04T03:43:45.356Z,13.40
2019-05-04T03:44:21.361Z,5.40
2019-05-04T03:44:59.062Z,5.87
2019-05-04T03:45:51.997Z,4.17
2019-05-04T03:46:55.679Z,10.37
2019-05-04T03:47:57.736Z,8.20
2019-05-04T03:48:37.749Z,11.80
2019-05-04T03:49:25.922Z,7.03
2019-05-04T03:50:10.505Z,7.27
2019-05-04T03:50:55.379Z,4.90
2019-05-04T03:51:35.196Z,4.87
2019-05-04T03:52:11.238Z,6.40
2019-05-04T03:52:47.143Z,11.43
2019-05-04T03:53:25.367Z,14.63
2019-05-04T03:54:00.721Z,5.63
2019-05-04T03:54:36.735Z,6.63
2019-05-04T03:55:16.281Z,6.37
2019-05-04T03:55:52.102Z,5.03
2019-05-04T03:56:28.118Z,8.77
2019-05-04T03:57:05.526Z,4.50
2019-05-04T03:57:41.552Z,4.80
2019-05-04T03:58:17.478Z,6.90
2019-05-04T03:58:55.785Z,12.00
2019-05-04T03:59:31.117Z,4.60
2019-05-04T04:00:09.396Z,9.67
2019-05-04T04:00:46.229Z,6.03
2019-05-04T04:01:22.386Z,8.43
2019-05-04T04:01:58.259Z,6.73
2019-05-04T04:02:37.599Z,6.50
2019-05-04T04:03:16.072Z,7.40
2019-05-04T04:03:50.428Z,5.77
2019-05-04T04:04:26.330Z,4.40
2019-05-04T04:05:02.228Z,10.73
2019-05-04T04:05:38.108Z,13.73
2019-05-04T04:06:15.720Z,3.67
2019-05-04T04:06:51.913Z,3.93
2019-05-04T04:07:28.379Z,7.70
2019-05-04T04:08:06.054Z,5.70
2019-05-04T04:08:41.865Z,3.73
2019-05-04T04:09:19.465Z,6.40
2019-05-04T04:09:56.337Z,4.73
2019-05-04T04:10:32.325Z,4.50
2019-05-04T04:11:08.238Z,4.70
2019-05-04T04:11:45.304Z,6.57
2019-05-04T04:12:21.332Z,4.90
2019-05-04T04:12:57.144Z,4.67
2019-05-04T04:13:35.882Z,6.20
2019-05-04T04:14:10.687Z,6.00
2019-05-04T04:14:46.601Z,4.10
2019-05-04T04:15:22.672Z,3.53
2019-05-04T04:16:05.622Z,3.87
2019-05-04T04:16:57.892Z,3.40
2019-05-04T04:17:50.848Z,4.73
2019-05-04T04:18:28.630Z,4.10
2019-05-04T04:19:06.240Z,2.57
2019-05-04T04:19:42.252Z,5.40
2019-05-04T04:20:18.230Z,3.10
2019-05-04T04:20:57.817Z,4.40
2019-05-04T04:21:36.483Z,3.23
2019-05-04T04:22:11.922Z,10.90
2019-05-04T04:22:47.929Z,2.63
2019-05-04T04:23:35.477Z,10.40
2019-05-04T04:24:10.750Z,3.43
2019-05-04T04:24:47.362Z,4.47
2019-05-04T04:25:29.404Z,3.53
2019-05-04T04:26:21.403Z,5.63
2019-05-04T04:27:05.483Z,4.37
2019-05-04T04:27:42.984Z,2.70
2019-05-04T04:28:25.316Z,3.37
2019-05-04T04:28:57.815Z,4.13
2019-05-04T04:29:40.941Z,3.73
2019-05-04T04:30:15.626Z,3.30
2019-05-04T04:30:51.873Z,3.00
2019-05-04T04:31:27.785Z,2.53
2019-05-04T04:32:06.414Z,6.20
2019-05-04T04:32:41.676Z,5.27
2019-05-04T04:33:17.653Z,4.20
2019-05-04T04:34:01.022Z,3.17
2019-05-04T04:34:35.503Z,5.83
2019-05-04T04:35:11.640Z,3.53
2019-05-04T04:35:47.741Z,3.60
2019-05-04T04:36:25.804Z,6.80
2019-05-04T04:37:01.521Z,8.23
2019-05-04T04:37:37.616Z,3.47
2019-05-04T04:38:15.817Z,2.97
2019-05-04T04:38:51.499Z,5.13
2019-05-04T04:39:34.459Z,7.83
2019-05-04T04:40:05.682Z,3.97
2019-05-04T04:40:41.619Z,8.10
2019-05-04T04:41:17.453Z,3.00
2019-05-04T04:41:56.143Z,2.73
2019-05-04T04:42:31.100Z,2.70
2019-05-04T04:43:07.002Z,2.50
2019-05-04T04:43:45.571Z,3.30
2019-05-04T04:44:20.875Z,7.93
2019-05-04T04:44:56.742Z,4.00
2019-05-04T04:45:35.582Z,3.80
2019-05-04T04:46:10.503Z,3.20
2019-05-04T04:46:46.753Z,4.20
2019-05-04T04:47:25.503Z,4.03
2019-05-04T04:48:17.698Z,5.13
2019-05-04T04:48:38.258Z,5.27
2019-05-04T04:49:15.688Z,5.13
2019-05-04T04:49:51.884Z,4.70
2019-05-04T04:50:37.573Z,3.53
2019-05-04T04:51:15.770Z,7.70
2019-05-04T04:51:56.043Z,4.23
2019-05-04T04:52:32.042Z,5.63
2019-05-04T04:53:07.973Z,3.60
2019-05-04T04:53:45.759Z,5.50
2019-05-04T04:54:21.515Z,3.73
2019-05-04T04:55:14.188Z,4.77
2019-05-04T04:55:36.554Z,4.10
2019-05-04T04:56:15.654Z,10.70
2019-05-04T04:56:55.372Z,4.80
2019-05-04T04:57:47.925Z,5.63
2019-05-04T04:58:36.721Z,7.73
2019-05-04T04:59:17.621Z,3.97
2019-05-04T05:00:15.036Z,4.77
2019-05-04T05:01:01.216Z,5.57
2019-05-04T05:01:37.630Z,3.53
2019-05-04T05:02:15.706Z,4.33
2019-05-04T05:02:51.266Z,10.13
2019-05-04T05:03:27.250Z,5.13
2019-05-04T05:04:05.772Z,4.13
2019-05-04T05:04:40.852Z,3.93
2019-05-04T05:05:16.953Z,4.77
2019-05-04T05:05:55.802Z,5.63
2019-05-04T05:06:30.790Z,4.50
2019-05-04T05:07:06.852Z,7.40
2019-05-04T05:07:45.501Z,4.30
2019-05-04T05:08:20.579Z,6.37
2019-05-04T05:08:56.420Z,5.60
2019-05-04T05:09:42.628Z,3.20
2019-05-04T05:10:10.265Z,6.90
2019-05-04T05:10:46.336Z,3.87
2019-05-04T05:11:22.324Z,9.30
2019-05-04T05:11:58.541Z,4.93
2019-05-04T05:12:34.892Z,8.50
2019-05-04T05:13:10.912Z,6.33
2019-05-04T05:13:46.775Z,10.37
2019-05-04T05:14:24.688Z,4.10
2019-05-04T05:15:00.414Z,8.30
2019-05-04T05:15:36.545Z,4.50
2019-05-04T05:16:12.522Z,4.80
2019-05-04T05:16:49.038Z,4.90
2019-05-04T05:17:25.060Z,4.60
2019-05-04T05:18:00.954Z,6.50
2019-05-04T05:18:36.888Z,8.00
2019-05-04T05:19:15.455Z,11.10
2019-05-04T05:19:51.307Z,4.53
2019-05-04T05:20:37.811Z,6.20
2019-05-04T05:21:25.361Z,4.30
2019-05-04T05:22:01.317Z,4.37
2019-05-04T05:22:37.259Z,3.40
2019-05-04T05:23:15.213Z,7.10
2019-05-04T05:23:51.003Z,6.90
2019-05-04T05:24:26.932Z,6.53
2019-05-04T05:25:04.861Z,4.07
2019-05-04T05:25:40.507Z,5.43
2019-05-04T05:26:16.360Z,8.63
2019-05-04T05:26:54.347Z,6.90
2019-05-04T05:27:30.012Z,3.83
2019-05-04T05:28:05.953Z,5.33
2019-05-04T05:28:41.927Z,3.37
2019-05-04T05:29:18.364Z,4.40
2019-05-04T05:29:55.216Z,5.17
2019-05-04T05:30:31.316Z,3.83
2019-05-04T05:31:26.061Z,3.43
2019-05-04T05:32:19.173Z,4.00
2019-05-04T05:33:11.641Z,3.40
2019-05-04T05:33:54.574Z,3.87
2019-05-04T05:34:47.237Z,4.73
2019-05-04T05:35:30.293Z,6.00
2019-05-04T05:36:07.685Z,6.27
2019-05-04T05:36:46.058Z,3.70
2019-05-04T05:37:21.502Z,12.33
2019-05-04T05:37:58.147Z,10.60
2019-05-04T05:38:34.970Z,5.03
2019-05-04T05:39:10.940Z,4.03
2019-05-04T05:39:57.823Z,4.03
2019-05-04T05:40:24.696Z,6.63
2019-05-04T05:41:00.890Z,4.17
2019-05-04T05:41:36.795Z,4.97
2019-05-04T05:42:15.051Z,2.97
2019-05-04T05:42:50.329Z,7.73
2019-05-04T05:43:27.685Z,6.73
2019-05-04T05:44:05.233Z,4.37
2019-05-04T05:44:41.359Z,15.33
2019-05-04T05:45:19.748Z,2.87
2019-05-04T05:46:06.401Z,3.40
2019-05-04T05:47:01.222Z,3.30
2019-05-04T05:47:54.811Z,3.37
2019-05-04T05:48:34.751Z,11.10
2019-05-04T05:49:18.881Z,5.30
2019-05-04T05:50:09.557Z,4.57
2019-05-04T05:51:10.023Z,4.10
2019-05-04T05:52:01.731Z,2.90
2019-05-04T05:52:47.569Z,6.33
2019-05-04T05:53:45.277Z,4.40
2019-05-04T05:54:29.740Z,6.13
2019-05-04T05:55:17.689Z,5.33
2019-05-04T05:56:11.480Z,2.93
2019-05-04T05:56:51.078Z,17.43
2019-05-04T05:57:39.713Z,4.83
2019-05-04T05:58:26.124Z,3.20
2019-05-04T05:59:24.968Z,4.80
2019-05-04T06:00:08.691Z,4.17
2019-05-04T06:01:00.827Z,2.97
2019-05-04T06:02:06.203Z,4.00
2019-05-04T06:03:00.312Z,3.20
2019-05-04T06:04:04.611Z,5.77
2019-05-04T06:04:51.820Z,4.00
2019-05-04T06:05:31.523Z,3.03
2019-05-04T06:06:11.249Z,1.80
2019-05-04T06:06:50.846Z,1.90
2019-05-04T06:07:30.588Z,1.57
2019-05-04T06:08:09.943Z,1.00
2019-05-04T06:08:49.780Z,1.53
2019-05-04T06:09:28.602Z,0.97
2019-05-04T06:10:26.940Z,0.83
2019-05-04T06:10:57.883Z,1.20
2019-05-04T06:11:38.603Z,1.40
2019-05-04T06:12:20.213Z,1.23
2019-05-04T06:13:01.902Z,1.63
2019-05-04T06:13:56.624Z,1.20
2019-05-04T06:14:44.777Z,0.80
2019-05-04T06:15:48.299Z,0.60
2019-05-04T06:16:49.514Z,1.23
2019-05-04T06:17:47.238Z,1.10
2019-05-04T06:18:25.169Z,0.90
2019-05-04T06:19:05.515Z,3.43
2019-05-04T06:19:55.696Z,1.00
2019-05-04T06:20:49.040Z,0.80
2019-05-04T06:21:33.915Z,0.63
2019-05-04T06:22:18.431Z,0.60
2019-05-04T06:23:06.066Z,0.93
2019-05-04T06:23:51.840Z,1.30
2019-05-04T06:24:45.255Z,0.87
2019-05-04T06:25:49.103Z,1.57
2019-05-04T06:26:40.051Z,0.90
2019-05-04T06:27:24.902Z,1.37
2019-05-04T06:28:25.420Z,0.77
2019-05-04T06:29:10.301Z,0.83
2019-05-04T06:29:58.855Z,1.40
2019-05-04T06:30:51.676Z,0.60
2019-05-04T06:31:49.831Z,0.87
2019-05-04T06:32:30.499Z,0.60
2019-05-04T06:33:12.264Z,0.90
2019-05-04T06:33:51.912Z,0.80
2019-05-04T06:34:31.176Z,1.00
2019-05-04T06:35:20.039Z,0.73
2019-05-04T06:36:17.355Z,0.70
2019-05-04T06:37:10.890Z,0.90
2019-05-04T06:38:10.164Z,2.40
2019-05-04T06:38:49.965Z,1.10
2019-05-04T06:39:34.467Z,0.97
2019-05-04T06:40:36.713Z,0.73
2019-05-04T06:41:10.229Z,1.27
2019-05-04T06:41:46.549Z,0.97
2019-05-04T06:42:30.832Z,0.97
2019-05-04T06:43:37.889Z,1.33
2019-05-04T06:44:19.450Z,0.73
2019-05-04T06:45:02.047Z,1.43
2019-05-04T06:46:08.245Z,0.60
2019-05-04T06:46:51.790Z,1.23
2019-05-04T06:47:27.981Z,0.73
2019-05-04T06:48:06.057Z,0.70
2019-05-04T06:48:42.049Z,0.70
2019-05-04T06:49:18.025Z,0.70
2019-05-04T06:49:55.776Z,2.40
2019-05-04T06:50:35.156Z,1.10
2019-05-04T06:51:29.716Z,1.23
2019-05-04T06:52:11.089Z,1.03
2019-05-04T06:52:54.925Z,1.23
2019-05-04T06:53:56.095Z,1.27
2019-05-04T06:54:50.248Z,2.00
2019-05-04T06:55:27.673Z,0.77
2019-05-04T06:56:19.070Z,0.80
2019-05-04T06:57:05.305Z,1.80
2019-05-04T06:58:04.318Z,0.97
2019-05-04T06:58:46.163Z,4.23
2019-05-04T06:59:23.338Z,2.93
2019-05-04T07:00:01.604Z,0.87
2019-05-04T07:00:44.828Z,0.97
2019-05-04T07:01:21.316Z,0.70
2019-05-04T07:02:00.855Z,0.70
2019-05-04T07:02:39.384Z,1.37
2019-05-04T07:03:15.478Z,0.77
2019-05-04T07:03:57.088Z,0.87
2019-05-04T07:04:29.552Z,1.37
2019-05-04T07:05:11.584Z,1.00
2019-05-04T07:05:49.856Z,0.90
2019-05-04T07:06:24.913Z,0.80
2019-05-04T07:07:00.933Z,4.57
2019-05-04T07:07:36.796Z,0.83
2019-05-04T07:08:27.997Z,1.67
2019-05-04T07:08:50.527Z,2.40
2019-05-04T07:09:30.142Z,1.63
2019-05-04T07:10:08.712Z,0.87
2019-05-04T07:10:56.719Z,1.00
2019-05-04T07:11:30.937Z,1.57
2019-05-04T07:12:07.526Z,2.40
2019-05-04T07:12:35.267Z,0.60
2019-05-04T07:13:20.990Z,0.77
2019-05-04T07:13:50.139Z,0.70
2019-05-04T07:14:29.129Z,3.80
2019-05-04T07:15:04.846Z,7.03
2019-05-04T07:15:40.916Z,1.30
2019-05-04T07:16:16.828Z,0.70
2019-05-04T07:16:54.516Z,0.40
2019-05-04T07:17:30.543Z,2.30
2019-05-04T07:18:06.502Z,0.93
2019-05-04T07:18:44.398Z,1.47
2019-05-04T07:19:22.507Z,0.70
2019-05-04T07:20:00.243Z,2.10
2019-05-04T07:20:37.768Z,3.80
2019-05-04T07:21:15.802Z,0.53
2019-05-04T07:21:54.797Z,0.53
2019-05-04T07:22:39.389Z,2.77
2019-05-04T07:23:10.337Z,0.83
2019-05-04T07:23:49.725Z,0.90
2019-05-04T07:24:24.469Z,7.03
2019-05-04T07:25:00.412Z,1.00
2019-05-04T07:25:36.300Z,0.93
2019-05-04T07:26:14.263Z,3.27
2019-05-04T07:26:49.872Z,5.07
2019-05-04T07:27:25.763Z,5.50
2019-05-04T07:28:01.659Z,1.50
2019-05-04T07:28:40.324Z,1.07
2019-05-04T07:29:18.942Z,0.93
2019-05-04T07:29:58.303Z,0.83
2019-05-04T07:30:38.917Z,3.77
2019-05-04T07:31:18.407Z,1.83
2019-05-04T07:32:39.008Z,1.17
2019-05-04T07:33:26.702Z,0.87
2019-05-04T07:34:06.581Z,8.67
2019-05-04T07:34:47.248Z,1.63
2019-05-04T07:35:48.084Z,1.87
2019-05-04T07:36:35.083Z,5.13
2019-05-04T07:37:46.533Z,1.80
2019-05-04T07:38:17.199Z,2.20
2019-05-04T07:39:07.903Z,2.30
2019-05-04T07:40:06.474Z,5.90
2019-05-04T07:40:44.885Z,1.33
2019-05-04T07:41:41.352Z,4.70
2019-05-04T07:42:10.921Z,4.73
2019-05-04T07:42:51.659Z,6.25
2019-05-04T07:43:23.219Z,4.20
2019-05-04T07:44:02.340Z,14.17
2019-05-04T07:44:54.677Z,5.13
2019-05-04T07:45:30.994Z,1.17
2019-05-04T07:46:09.444Z,1.23
2019-05-04T08:17:59.361Z,2.40
2019-05-04T08:18:37.031Z,2.97
2019-05-04T08:19:15.271Z,12.00
2019-05-04T08:19:54.838Z,1.30
2019-05-04T08:20:30.828Z,1.40
2019-05-04T08:21:09.248Z,1.23
2019-05-04T08:21:45.373Z,2.50
2019-05-04T08:22:25.600Z,1.83
2019-05-04T08:23:05.181Z,2.43
2019-05-04T08:23:41.817Z,1.00
2019-05-04T08:24:27.052Z,5.33
2019-05-04T08:24:56.317Z,1.00
2019-05-04T08:25:41.146Z,1.70
2019-05-04T08:26:20.065Z,0.83
2019-05-04T08:26:55.666Z,3.07
2019-05-04T08:27:31.817Z,3.75
2019-05-04T08:28:08.385Z,1.40
2019-05-04T08:28:44.682Z,2.40
2019-05-04T08:29:23.276Z,2.40
2019-05-04T08:30:07.911Z,1.57
2019-05-04T08:36:14.342Z,1.70
2019-05-04T08:37:22.008Z,3.10
2019-05-04T08:38:01.943Z,1.03
2019-05-04T08:38:41.566Z,1.63
2019-05-04T08:39:20.241Z,1.73
2019-05-04T08:39:54.438Z,0.90
2019-05-04T08:40:30.384Z,1.10
2019-05-04T08:41:06.264Z,5.67
2019-05-04T08:41:44.146Z,3.90
2019-05-04T08:42:27.020Z,2.97
2019-05-04T08:42:57.518Z,5.30
2019-05-04T08:43:35.064Z,2.33
2019-05-04T08:44:14.376Z,4.00
2019-05-04T08:48:10.603Z,1.93
2019-05-04T11:50:54.565Z,1.57
2019-05-04T11:51:30.582Z,1.17
2019-05-04T11:52:06.524Z,5.80
2019-05-04T11:52:44.302Z,0.80
2019-05-04T11:53:20.153Z,3.17
2019-05-04T11:53:56.028Z,4.17
2019-05-04T11:54:31.876Z,1.10
2019-05-04T11:55:09.024Z,1.83
2019-05-04T11:55:45.091Z,3.60
2019-05-04T11:56:21.753Z,2.10
2019-05-04T11:56:57.739Z,1.30
2019-05-04T11:57:35.123Z,2.83
2019-05-04T11:58:11.155Z,1.83
2019-05-04T11:58:47.351Z,15.13
2019-05-04T11:59:24.661Z,2.00
2019-05-04T12:00:01.243Z,5.60
2019-05-04T12:00:38.114Z,4.00
2019-05-04T12:01:40.399Z,1.03
2019-05-04T12:02:17.057Z,4.40
2019-05-04T12:02:59.629Z,4.83
2019-05-04T12:03:30.578Z,1.37
2019-05-04T12:04:08.087Z,1.70
2019-05-04T12:05:17.769Z,1.37
2019-05-04T12:06:11.469Z,2.07
2019-05-04T12:07:09.464Z,1.40
2019-05-04T12:07:51.250Z,2.40
2019-05-04T12:08:52.222Z,2.83
2019-05-04T12:09:52.859Z,5.57
2019-05-04T12:10:36.134Z,1.87
2019-05-04T12:11:12.046Z,2.50
2019-05-04T12:11:48.043Z,1.40
2019-05-04T12:12:25.270Z,2.50
2019-05-04T12:13:01.352Z,4.17
2019-05-04T12:13:45.957Z,3.23
2019-05-04T12:14:15.172Z,1.73
2019-05-04T12:14:51.888Z,3.53
2019-05-04T12:15:27.982Z,2.30
2019-05-04T12:16:05.377Z,9.17
2019-05-04T12:16:41.439Z,5.63
2019-05-04T12:17:17.312Z,1.17
2019-05-04T12:17:55.240Z,3.67
2019-05-04T12:18:30.854Z,2.90
2019-05-04T12:19:07.570Z,3.47
2019-05-04T12:19:45.121Z,1.53
2019-05-04T12:20:21.090Z,2.60
2019-05-04T12:20:57.011Z,2.50
2019-05-04T12:21:33.118Z,0.93
2019-05-04T12:22:08.973Z,2.70
2019-05-04T12:22:44.915Z,8.43
2019-05-04T12:23:20.842Z,0.73
2019-05-04T12:23:56.725Z,2.83
2019-05-04T12:24:32.546Z,1.73
2019-05-04T12:25:08.627Z,2.40
2019-05-04T12:25:44.960Z,1.83
2019-05-04T12:26:20.918Z,0.77
2019-05-04T12:26:57.069Z,1.00
2019-05-04T12:27:34.932Z,2.20
2019-05-04T12:28:10.661Z,0.93
2019-05-04T12:28:46.545Z,1.00
2019-05-04T12:29:24.584Z,1.33
2019-05-04T12:30:00.578Z,1.23